createdAt,value
2022-08-17T00:00:16.537Z,20.30
2022-08-17T00:03:08.370Z,20.30
2022-08-17T00:05:41.012Z,20.30
2022-08-17T00:08:09.236Z,20.20
2022-08-17T00:10:37.359Z,20.20
2022-08-17T00:13:09.300Z,20.10
2022-08-17T00:15:37.400Z,20.10
2022-08-17T00:19:01.587Z,20.10
2022-08-17T00:20:55.403Z,20.10
2022-08-17T00:23:23.704Z,20.10
2022-08-17T00:25:52.006Z,20.00
2022-08-17T00:28:20.162Z,20.00
2022-08-17T00:30:53.072Z,20.00
2022-08-17T00:33:23.779Z,20.00
2022-08-17T00:35:51.980Z,19.90
2022-08-17T00:38:21.586Z,19.90
2022-08-17T00:40:50.711Z,19.90
2022-08-17T00:43:22.185Z,19.90
2022-08-17T00:45:50.440Z,19.90
2022-08-17T00:48:27.269Z,19.80
2022-08-17T00:51:01.042Z,19.90
2022-08-17T00:53:31.455Z,19.80
2022-08-17T00:56:00.133Z,19.70
2022-08-17T00:58:35.753Z,19.70
2022-08-17T01:01:05.223Z,19.70
2022-08-17T01:03:33.513Z,19.60
2022-08-17T01:06:01.882Z,19.60
2022-08-17T01:08:31.688Z,19.60
2022-08-17T01:11:02.459Z,19.50
2022-08-17T01:13:38.228Z,19.50
2022-08-17T01:16:11.210Z,19.50
2022-08-17T01:18:39.345Z,19.50
2022-08-17T01:21:10.297Z,19.50
2022-08-17T01:23:39.934Z,19.40
2022-08-17T01:26:08.082Z,19.40
2022-08-17T01:28:53.683Z,19.30
2022-08-17T01:31:25.262Z,19.30
2022-08-17T01:33:53.394Z,19.30
2022-08-17T01:36:21.595Z,19.30
2022-08-17T01:38:51.045Z,19.20
2022-08-17T01:41:19.103Z,19.20
2022-08-17T01:43:49.020Z,19.20
2022-08-17T01:46:18.021Z,19.20
2022-08-17T01:48:47.575Z,19.20
2022-08-17T01:51:16.176Z,19.20
2022-08-17T01:53:46.238Z,19.20
2022-08-17T01:56:16.633Z,19.10
2022-08-17T01:58:44.767Z,19.20
2022-08-17T02:01:16.616Z,19.20
2022-08-17T02:03:59.469Z,19.10
2022-08-17T02:06:30.352Z,19.10
2022-08-17T02:09:03.093Z,19.10
2022-08-17T02:11:33.553Z,19.10
2022-08-17T02:14:04.046Z,19.10
2022-08-17T02:16:37.459Z,19.00
2022-08-17T02:19:07.588Z,19.00
2022-08-17T02:21:35.902Z,19.00
2022-08-17T02:24:04.346Z,19.00
2022-08-17T02:26:33.931Z,19.00
2022-08-17T02:29:02.071Z,19.00
2022-08-17T02:31:31.188Z,19.00
2022-08-17T02:34:04.602Z,18.90
2022-08-17T02:36:33.823Z,18.90
2022-08-17T02:39:02.331Z,18.90
2022-08-17T02:41:30.592Z,18.90
2022-08-17T02:43:59.995Z,18.90
2022-08-17T02:46:28.402Z,18.80
2022-08-17T02:48:56.654Z,18.90
2022-08-17T02:51:24.734Z,18.80
2022-08-17T02:53:52.901Z,18.80
2022-08-17T02:56:40.954Z,18.80
2022-08-17T02:59:10.350Z,18.80
2022-08-17T03:01:38.525Z,18.80
2022-08-17T03:04:06.809Z,18.80
2022-08-17T03:06:35.478Z,18.70
2022-08-17T03:09:03.544Z,18.70
2022-08-17T03:11:31.606Z,18.70
2022-08-17T03:13:59.673Z,18.70
2022-08-17T03:16:29.135Z,18.70
2022-08-17T03:18:57.222Z,18.70
2022-08-17T03:21:25.306Z,18.60
2022-08-17T03:23:54.589Z,18.60
2022-08-17T03:26:22.849Z,18.60
2022-08-17T03:28:50.884Z,18.60
2022-08-17T03:31:20.778Z,18.60
2022-08-17T03:33:50.197Z,18.60
2022-08-17T03:36:18.271Z,18.50
2022-08-17T03:38:46.322Z,18.50
2022-08-17T03:41:14.704Z,18.50
2022-08-17T03:43:42.759Z,18.50
2022-08-17T03:46:34.503Z,18.50
2022-08-17T03:49:23.084Z,18.50
2022-08-17T03:52:08.809Z,18.50
2022-08-17T03:54:54.580Z,18.50
2022-08-17T03:57:22.653Z,18.50
2022-08-17T03:59:51.094Z,18.50
2022-08-17T04:02:21.119Z,18.50
2022-08-17T04:04:51.343Z,18.50
2022-08-17T04:07:19.755Z,18.50
2022-08-17T04:09:47.811Z,18.50
2022-08-17T04:12:16.291Z,18.50
2022-08-17T04:14:52.776Z,18.50
2022-08-17T04:17:23.355Z,18.50
2022-08-17T04:19:53.063Z,18.50
2022-08-17T04:22:30.386Z,18.50
2022-08-17T04:25:06.145Z,18.50
2022-08-17T04:27:34.238Z,18.50
2022-08-17T04:30:02.352Z,18.50
2022-08-17T04:33:04.631Z,18.50
2022-08-17T04:35:21.787Z,18.50
2022-08-17T04:37:49.917Z,18.60
2022-08-17T04:40:35.558Z,18.60
2022-08-17T04:43:04.721Z,18.60
2022-08-17T04:45:32.877Z,18.70
2022-08-17T04:48:01.302Z,18.70
2022-08-17T04:50:30.718Z,18.80
2022-08-17T04:52:59.131Z,18.90
2022-08-17T04:55:27.406Z,18.90
2022-08-17T04:57:55.539Z,19.00
2022-08-17T05:00:25.886Z,19.00
2022-08-17T05:02:55.013Z,19.10
2022-08-17T05:05:24.388Z,19.20
2022-08-17T05:07:54.493Z,19.20
2022-08-17T05:10:22.661Z,19.40
2022-08-17T05:12:58.694Z,19.40
2022-08-17T05:15:27.165Z,19.40
2022-08-17T05:17:55.228Z,19.50
2022-08-17T05:20:23.351Z,19.50
2022-08-17T05:22:51.709Z,19.60
2022-08-17T05:25:24.934Z,19.60
2022-08-17T05:27:54.299Z,19.70
2022-08-17T05:30:22.470Z,19.80
2022-08-17T05:32:54.927Z,19.90
2022-08-17T05:35:23.298Z,20.00
2022-08-17T05:37:51.341Z,20.10
2022-08-17T05:40:21.567Z,20.20
2022-08-17T05:42:49.757Z,20.40
2022-08-17T05:45:28.092Z,20.60
2022-08-17T05:48:07.356Z,20.80
2022-08-17T05:50:38.241Z,21.00
2022-08-17T05:53:10.154Z,21.10
2022-08-17T05:55:42.876Z,21.20
2022-08-17T05:58:15.902Z,21.40
2022-08-17T06:00:48.115Z,21.60
2022-08-17T06:03:30.903Z,21.80
2022-08-17T06:06:08.887Z,21.90
2022-08-17T06:08:41.694Z,22.10
2022-08-17T06:11:22.842Z,22.40
2022-08-17T06:14:14.725Z,22.60
2022-08-17T06:16:44.366Z,22.80
2022-08-17T06:19:14.474Z,23.00
2022-08-17T06:21:43.778Z,23.20
2022-08-17T06:24:22.437Z,23.40
2022-08-17T06:26:51.891Z,23.70
2022-08-17T06:29:24.559Z,23.90
2022-08-17T06:31:52.630Z,24.20
2022-08-17T06:34:20.996Z,24.50
2022-08-17T06:36:53.229Z,24.80
2022-08-17T06:39:30.107Z,25.00
2022-08-17T06:42:05.683Z,25.10
2022-08-17T06:44:49.647Z,25.40
2022-08-17T06:47:28.347Z,25.50
2022-08-17T06:50:14.743Z,25.80
2022-08-17T06:52:47.594Z,26.00
2022-08-17T06:55:18.944Z,26.10
2022-08-17T06:57:51.137Z,26.40
2022-08-17T07:00:20.181Z,26.50
2022-08-17T07:02:51.538Z,26.70
2022-08-17T07:05:22.893Z,26.90
2022-08-17T07:08:05.121Z,27.10
2022-08-17T07:10:37.725Z,27.40
2022-08-17T07:13:25.710Z,27.60
2022-08-17T07:15:57.152Z,27.90
2022-08-17T07:18:26.611Z,28.10
2022-08-17T07:20:56.495Z,28.30
2022-08-17T07:23:27.010Z,28.30
2022-08-17T07:25:55.821Z,28.50
2022-08-17T07:28:25.241Z,28.90
2022-08-17T07:30:54.821Z,29.10
2022-08-17T07:33:24.776Z,29.30
2022-08-17T07:35:52.965Z,29.40
2022-08-17T07:38:25.456Z,29.50
2022-08-17T07:41:02.861Z,29.60
2022-08-17T07:43:32.922Z,29.80
2022-08-17T07:46:24.744Z,30.10
2022-08-17T07:48:54.026Z,30.20
2022-08-17T07:51:26.187Z,30.00
2022-08-17T07:54:04.801Z,30.10
2022-08-17T07:56:44.909Z,30.30
2022-08-17T07:59:16.864Z,30.50
2022-08-17T08:01:47.120Z,30.40
2022-08-17T08:04:43.155Z,30.40
2022-08-17T08:07:13.474Z,30.60
2022-08-17T08:09:43.106Z,30.80
2022-08-17T08:12:24.794Z,31.00
2022-08-17T08:15:04.460Z,31.20
2022-08-17T08:17:35.812Z,31.30
2022-08-17T08:20:50.981Z,31.60
2022-08-17T08:22:58.998Z,31.60
2022-08-17T08:25:32.834Z,31.90
2022-08-17T08:28:08.550Z,32.10
2022-08-17T08:30:41.757Z,32.00
2022-08-17T08:33:27.104Z,32.30
2022-08-17T08:35:56.140Z,32.50
2022-08-17T08:38:30.950Z,32.30
2022-08-17T08:41:09.397Z,32.40
2022-08-17T08:43:43.533Z,32.80
2022-08-17T08:46:19.730Z,32.60
2022-08-17T08:49:06.520Z,32.90
2022-08-17T08:51:45.542Z,33.30
2022-08-17T08:54:26.711Z,33.40
2022-08-17T08:57:23.252Z,33.50
2022-08-17T09:00:00.966Z,33.70
2022-08-17T09:02:42.499Z,33.60
2022-08-17T09:05:15.349Z,33.60
2022-08-17T09:07:47.433Z,33.50
2022-08-17T09:10:20.676Z,34.00
2022-08-17T09:12:57.474Z,34.40
2022-08-17T09:15:27.758Z,34.10
2022-08-17T09:18:58.935Z,34.20
2022-08-17T09:20:51.060Z,34.50
2022-08-17T09:23:24.410Z,34.70
2022-08-17T09:25:56.510Z,35.10
2022-08-17T09:28:28.594Z,34.60
2022-08-17T09:31:02.531Z,34.30
2022-08-17T09:33:33.345Z,34.20
2022-08-17T09:36:03.577Z,34.50
2022-08-17T09:38:34.567Z,34.70
2022-08-17T09:41:10.049Z,35.20
2022-08-17T09:43:40.109Z,35.70
2022-08-17T09:46:10.431Z,36.00
2022-08-17T09:48:42.618Z,35.80
2022-08-17T09:51:13.674Z,35.70
2022-08-17T09:53:44.568Z,36.10
2022-08-17T09:56:20.327Z,36.50
2022-08-17T09:58:57.310Z,36.70
2022-08-17T10:01:29.216Z,36.10
2022-08-17T10:04:20.064Z,35.80
2022-08-17T10:06:52.756Z,35.80
2022-08-17T10:09:24.906Z,36.30
2022-08-17T10:12:15.676Z,36.20
2022-08-17T10:14:53.317Z,35.70
2022-08-17T10:17:24.148Z,35.60
2022-08-17T10:19:57.686Z,35.60
2022-08-17T10:22:46.261Z,35.30
2022-08-17T10:25:54.122Z,35.80
2022-08-17T10:28:29.401Z,35.60
2022-08-17T10:31:23.248Z,35.60
2022-08-17T10:33:52.087Z,35.90
2022-08-17T10:36:24.115Z,36.20
2022-08-17T10:39:00.568Z,36.20
2022-08-17T10:41:30.454Z,36.30
2022-08-17T10:44:39.756Z,36.60
2022-08-17T10:47:06.666Z,36.30
2022-08-17T10:49:35.099Z,36.00
2022-08-17T10:52:09.066Z,35.70
2022-08-17T10:54:47.279Z,35.90
2022-08-17T10:57:35.322Z,36.00
2022-08-17T11:00:06.313Z,35.70
2022-08-17T11:02:41.406Z,35.60
2022-08-17T11:05:42.827Z,36.30
2022-08-17T11:08:26.675Z,36.40
2022-08-17T11:11:12.221Z,36.80
2022-08-17T11:13:43.257Z,36.20
2022-08-17T11:16:23.234Z,36.10
2022-08-17T11:19:06.126Z,35.90
2022-08-17T11:21:59.889Z,35.80
2022-08-17T11:24:33.085Z,36.30
2022-08-17T11:27:13.601Z,36.60
2022-08-17T11:29:53.588Z,37.10
2022-08-17T11:32:38.518Z,36.50
2022-08-17T11:35:29.696Z,35.90
2022-08-17T11:38:16.327Z,35.50
2022-08-17T11:41:00.620Z,35.30
2022-08-17T11:43:51.772Z,35.70
2022-08-17T11:46:24.287Z,36.10
2022-08-17T11:49:17.151Z,36.20
2022-08-17T11:52:13.240Z,36.20
2022-08-17T11:54:44.499Z,36.60
2022-08-17T11:57:55.597Z,36.90
2022-08-17T12:00:54.827Z,37.10
2022-08-17T12:03:43.328Z,36.90
2022-08-17T12:06:43.058Z,37.20
2022-08-17T12:09:14.041Z,37.30
2022-08-17T12:11:58.731Z,36.80
2022-08-17T12:15:08.092Z,36.10
2022-08-17T12:17:34.717Z,35.70
2022-08-17T12:20:15.148Z,36.20
2022-08-17T12:22:48.301Z,36.20
2022-08-17T12:25:19.175Z,36.00
2022-08-17T12:28:04.955Z,35.70
2022-08-17T12:30:36.849Z,35.40
2022-08-17T12:33:07.635Z,35.60
2022-08-17T12:35:38.993Z,35.50
2022-08-17T12:38:32.646Z,36.00
2022-08-17T12:40:58.040Z,35.60
2022-08-17T12:43:28.013Z,35.40
2022-08-17T12:45:59.580Z,35.30
2022-08-17T12:48:28.282Z,35.20
2022-08-17T12:51:00.469Z,35.10
2022-08-17T12:53:30.526Z,35.00
2022-08-17T12:55:59.242Z,34.90
2022-08-17T12:58:30.024Z,34.70
2022-08-17T13:01:02.336Z,34.90
2022-08-17T13:03:38.881Z,35.10
2022-08-17T13:06:08.106Z,35.30
2022-08-17T13:08:37.128Z,35.50
2022-08-17T13:11:06.189Z,35.70
2022-08-17T13:13:35.877Z,35.70
2022-08-17T13:16:06.356Z,35.90
2022-08-17T13:18:40.381Z,36.00
2022-08-17T13:21:13.332Z,36.10
2022-08-17T13:23:44.797Z,36.30
2022-08-17T13:26:22.713Z,35.90
2022-08-17T13:28:51.213Z,35.70
2022-08-17T13:31:33.095Z,35.50
2022-08-17T13:34:16.140Z,35.50
2022-08-17T13:36:46.026Z,35.50
2022-08-17T13:39:19.061Z,35.40
2022-08-17T13:41:47.714Z,35.00
2022-08-17T13:44:31.554Z,34.80
2022-08-17T13:47:01.113Z,34.70
2022-08-17T13:49:41.945Z,34.60
2022-08-17T13:52:34.527Z,34.90
2022-08-17T13:55:03.100Z,34.80
2022-08-17T13:57:31.179Z,34.50
2022-08-17T14:00:09.372Z,34.50
2022-08-17T14:02:38.863Z,34.80
2022-08-17T14:05:07.237Z,34.60
2022-08-17T14:07:36.121Z,34.60
2022-08-17T14:10:07.900Z,34.60
2022-08-17T14:12:36.195Z,34.70
2022-08-17T14:15:04.267Z,34.50
2022-08-17T14:17:36.533Z,34.40
2022-08-17T14:20:10.382Z,34.30
2022-08-17T14:22:39.502Z,34.40
2022-08-17T14:25:10.428Z,34.30
2022-08-17T14:27:47.117Z,34.40
2022-08-17T14:30:21.354Z,34.40
2022-08-17T14:32:51.971Z,34.30
2022-08-17T14:35:23.195Z,34.30
2022-08-17T14:37:51.635Z,34.00
2022-08-17T14:40:24.986Z,33.90
2022-08-17T14:42:53.846Z,33.60
2022-08-17T14:45:30.155Z,33.50
2022-08-17T14:48:00.623Z,33.40
2022-08-17T14:50:30.027Z,33.30
2022-08-17T14:53:01.379Z,33.30
2022-08-17T14:55:31.074Z,33.30
2022-08-17T14:57:59.203Z,33.30
2022-08-17T15:00:27.297Z,33.10
2022-08-17T15:02:56.351Z,33.00
2022-08-17T15:05:25.523Z,32.80
2022-08-17T15:07:55.866Z,32.80
2022-08-17T15:10:25.860Z,32.60
2022-08-17T15:12:54.550Z,32.60
2022-08-17T15:15:22.610Z,32.60
2022-08-17T15:17:51.282Z,32.50
2022-08-17T15:20:21.943Z,32.30
2022-08-17T15:22:50.687Z,32.20
2022-08-17T15:25:20.154Z,32.10
2022-08-17T15:27:48.422Z,32.00
2022-08-17T15:30:16.534Z,32.00
2022-08-17T15:32:50.702Z,31.80
2022-08-17T15:35:28.069Z,31.60
2022-08-17T15:38:06.267Z,31.60
2022-08-17T15:40:41.407Z,31.60
2022-08-17T15:43:11.383Z,31.50
2022-08-17T15:45:39.702Z,31.40
2022-08-17T15:48:07.823Z,31.40
2022-08-17T15:50:36.086Z,31.40
2022-08-17T15:53:05.011Z,31.40
2022-08-17T15:55:33.448Z,31.30
2022-08-17T15:58:02.880Z,31.30
2022-08-17T16:00:30.970Z,31.30
2022-08-17T16:03:45.398Z,31.30
2022-08-17T16:05:52.548Z,31.30
2022-08-17T16:08:21.470Z,31.20
2022-08-17T16:10:49.847Z,31.20
2022-08-17T16:13:19.499Z,31.20
2022-08-17T16:15:54.816Z,31.20
2022-08-17T16:18:25.789Z,30.90
2022-08-17T16:20:55.049Z,30.80
2022-08-17T16:23:23.148Z,30.70
2022-08-17T16:25:54.099Z,30.70
2022-08-17T16:28:36.003Z,30.80
2022-08-17T16:31:05.925Z,30.80
2022-08-17T16:33:37.727Z,30.90
2022-08-17T16:36:07.342Z,30.90
2022-08-17T16:38:35.819Z,30.90
2022-08-17T16:41:03.993Z,30.80
2022-08-17T16:43:33.684Z,30.80
2022-08-17T16:46:01.922Z,30.70
2022-08-17T16:48:30.304Z,30.60
2022-08-17T16:51:03.491Z,30.50
2022-08-17T16:53:32.590Z,30.40
2022-08-17T16:56:00.668Z,30.40
2022-08-17T16:58:29.155Z,30.40
2022-08-17T17:00:59.697Z,30.20
2022-08-17T17:03:28.006Z,30.10
2022-08-17T17:06:00.422Z,30.10
2022-08-17T17:08:33.050Z,30.00
2022-08-17T17:11:09.029Z,29.90
2022-08-17T17:13:40.501Z,29.90
2022-08-17T17:16:15.025Z,29.80
2022-08-17T17:18:43.950Z,29.70
2022-08-17T17:21:13.897Z,29.50
2022-08-17T17:23:48.226Z,29.50
2022-08-17T17:26:23.796Z,29.40
2022-08-17T17:29:01.730Z,29.40
2022-08-17T17:31:34.324Z,29.30
2022-08-17T17:34:04.045Z,29.20
2022-08-17T17:36:34.048Z,29.00
2022-08-17T17:39:05.367Z,29.00
2022-08-17T17:41:35.111Z,29.00
2022-08-17T17:44:04.907Z,28.90
2022-08-17T17:46:35.477Z,28.70
2022-08-17T17:49:03.569Z,28.80
2022-08-17T17:52:06.525Z,28.60
2022-08-17T17:54:32.624Z,28.60
2022-08-17T17:57:03.683Z,28.50
2022-08-17T17:59:41.837Z,28.40
2022-08-17T18:02:39.245Z,28.30
2022-08-17T18:05:16.562Z,28.30
2022-08-17T18:07:46.863Z,28.20
2022-08-17T18:10:29.541Z,28.10
2022-08-17T18:13:01.462Z,28.00
2022-08-17T18:15:31.499Z,27.90
2022-08-17T18:18:24.038Z,27.80
2022-08-17T18:20:53.410Z,27.80
2022-08-17T18:23:28.165Z,27.70
2022-08-17T18:25:57.142Z,27.70
2022-08-17T18:28:26.322Z,27.60
2022-08-17T18:31:12.017Z,27.50
2022-08-17T18:33:42.310Z,27.50
2022-08-17T18:36:10.940Z,27.40
2022-08-17T18:38:40.191Z,27.40
2022-08-17T18:41:23.644Z,27.20
2022-08-17T18:44:00.672Z,27.20
2022-08-17T18:46:31.297Z,27.10
2022-08-17T18:49:01.658Z,27.10
2022-08-17T18:51:42.090Z,27.00
2022-08-17T18:54:19.649Z,26.90
2022-08-17T18:56:51.146Z,26.80
2022-08-17T18:59:30.865Z,26.80
2022-08-17T19:02:32.528Z,26.80
2022-08-17T19:05:13.390Z,26.70
2022-08-17T19:07:42.801Z,26.60
2022-08-17T19:10:19.247Z,26.50
2022-08-17T19:12:49.403Z,26.40
2022-08-17T19:15:18.977Z,26.40
2022-08-17T19:17:51.531Z,26.40
2022-08-17T19:20:23.798Z,26.30
2022-08-17T19:22:58.133Z,26.30
2022-08-17T19:25:27.615Z,26.20
2022-08-17T19:27:58.481Z,26.20
2022-08-17T19:30:27.917Z,26.10
2022-08-17T19:32:57.086Z,26.00
2022-08-17T19:35:28.360Z,26.00
2022-08-17T19:38:02.722Z,25.90
2022-08-17T19:40:52.130Z,25.90
2022-08-17T19:43:24.637Z,25.90
2022-08-17T19:45:59.482Z,25.80
2022-08-17T19:48:35.631Z,25.80
2022-08-17T19:51:06.622Z,25.80
2022-08-17T19:54:03.937Z,25.70
2022-08-17T19:56:31.754Z,25.80
2022-08-17T19:59:02.162Z,25.60
2022-08-17T20:01:35.738Z,25.60
2022-08-17T20:04:08.047Z,25.50
2022-08-17T20:06:39.927Z,25.50
2022-08-17T20:09:14.990Z,25.50
2022-08-17T20:11:46.416Z,25.40
2022-08-17T20:14:15.530Z,25.40
2022-08-17T20:16:43.608Z,25.30
2022-08-17T20:19:17.980Z,25.20
2022-08-17T20:21:50.214Z,25.20
2022-08-17T20:24:21.642Z,25.20
2022-08-17T20:26:55.155Z,25.10
2022-08-17T20:29:31.877Z,25.00
2022-08-17T20:32:25.278Z,25.00
2022-08-17T20:35:19.810Z,24.90
2022-08-17T20:37:55.532Z,24.90
2022-08-17T20:40:29.490Z,24.90
2022-08-17T20:42:57.736Z,24.80
2022-08-17T20:45:51.479Z,24.80
2022-08-17T20:48:37.060Z,24.80
2022-08-17T20:51:28.792Z,24.70
2022-08-17T20:54:36.677Z,24.70
2022-08-17T20:57:06.267Z,24.70
2022-08-17T21:00:02.806Z,24.60
2022-08-17T21:02:32.893Z,24.50
2022-08-17T21:05:07.018Z,24.50
2022-08-17T21:07:54.644Z,24.50
2022-08-17T21:10:35.729Z,24.50
2022-08-17T21:13:34.919Z,24.40
2022-08-17T21:16:06.434Z,24.40
2022-08-17T21:18:38.705Z,24.40
2022-08-17T21:21:17.742Z,24.30
2022-08-17T21:24:07.432Z,24.30
2022-08-17T21:26:52.037Z,24.30
2022-08-17T21:29:32.339Z,24.30
2022-08-17T21:32:18.463Z,24.30
2022-08-17T21:35:04.234Z,24.30
2022-08-17T21:37:34.895Z,24.20
2022-08-17T21:40:18.781Z,24.30
2022-08-17T21:42:47.965Z,24.20
2022-08-17T21:45:22.053Z,24.30
2022-08-17T21:47:50.662Z,24.20
2022-08-17T21:50:21.014Z,24.10
2022-08-17T21:52:49.665Z,24.10
2022-08-17T21:55:23.028Z,24.10
2022-08-17T21:57:53.217Z,24.00
2022-08-17T22:00:40.528Z,24.10
2022-08-17T22:03:09.605Z,24.00
2022-08-17T22:05:39.952Z,24.00
2022-08-17T22:08:09.556Z,24.00
2022-08-17T22:10:45.807Z,23.90
2022-08-17T22:13:20.183Z,23.90
2022-08-17T22:15:50.938Z,23.90
2022-08-17T22:18:21.052Z,23.90
2022-08-17T22:20:50.874Z,23.90
2022-08-17T22:23:52.189Z,23.90
2022-08-17T22:26:21.708Z,23.80
2022-08-17T22:28:50.964Z,23.90
2022-08-17T22:31:21.193Z,23.80
2022-08-17T22:33:50.058Z,23.80
2022-08-17T22:36:29.037Z,23.90
2022-08-17T22:38:58.126Z,23.80
2022-08-17T22:41:42.366Z,23.80
2022-08-17T22:44:18.829Z,23.80
2022-08-17T22:47:11.225Z,23.80
2022-08-17T22:49:53.739Z,23.80
2022-08-17T22:52:33.610Z,23.80
2022-08-17T22:55:21.577Z,23.80
2022-08-17T22:58:07.221Z,23.80
2022-08-17T23:00:38.536Z,23.80
2022-08-17T23:03:14.411Z,23.70
2022-08-17T23:05:45.039Z,23.80
2022-08-17T23:08:13.697Z,23.70
2022-08-17T23:10:42.474Z,23.70
2022-08-17T23:13:11.932Z,23.70
2022-08-17T23:15:40.671Z,23.70
2022-08-17T23:18:10.101Z,23.70
2022-08-17T23:20:38.861Z,23.70
2022-08-17T23:23:07.632Z,23.70
2022-08-17T23:25:36.049Z,23.60
2022-08-17T23:28:05.275Z,23.60
2022-08-17T23:30:34.886Z,23.50
2022-08-17T23:33:05.573Z,23.50
2022-08-17T23:35:40.278Z,23.50
2022-08-17T23:38:09.964Z,23.50
2022-08-17T23:40:39.422Z,23.40
2022-08-17T23:43:17.575Z,23.40
2022-08-17T23:45:54.399Z,23.40
2022-08-17T23:48:28.417Z,23.40
2022-08-17T23:51:08.815Z,23.40
2022-08-17T23:53:37.385Z,23.40
2022-08-17T23:56:10.157Z,23.40
2022-08-17T23:58:39.297Z,23.40
